Wilmington, OH

12:53 PM EDT on September 04, 2015 (GMT -0400)
Little House On The Prairie | | Change Station
CLOSE
Current Station
Personal Weather Station
Location: Wilmington, OH
Elevation: 1043 ft
Nearby Weather Stations

Elev 1043 ft 39.45 °N, 83.82 °W | Updated 10 seconds ago

Clear
Clear
86.7 °F
Feels Like 92 °F
N
4.6
Wind Variable Wind from South
Gusts 4.6 mph

Today
High -- | Low -- °F
--% Chance of Precip.
Yesterday
High -- | Low -- °F
Precip. -- in
7:06 AM 8:01 PM
Waning Gibbous, 58% visible
Pressure 30.04 in
Visibility 8.0 miles
Clouds Clear
Heat Index 92 °F
Dew Point 71 °F
Humidity 59%
Rainfall 0.00 in
Snow Depth Not available.
UV 8 out of 12
Pollen 9.60 out of 12
Air Quality Not available.
Flu Activity Not available.
METAR KILN 041554Z AUTO VRB03KT 8SM CLR 28/21 A3008 RMK AO2 SLP173 T02830211
Pressure 30.04 in
Visibility 8.0 miles
Clouds Clear
Heat Index 92 °F
Dew Point 71 °F
Humidity 59%
Rainfall 0.00 in
Snow Depth Not available.
UV 8 out of 12
Pollen 9.60 out of 12
Air Quality Not available.
Flu Activity Not available.
METAR KILN 041554Z AUTO VRB03KT 8SM CLR 28/21 A3008 RMK AO2 SLP173 T02830211

10-Day Weather Forecast

×

Almanac

Astronomy

Sep. 04, 2015 Rise Set
Actual Time
Civil Twilight
Nautical Twilight
Astronomical Twilight
Moon
Length of Visible Light
Length of Day
Tomorrow will be .
, % of the Moon is Illuminated

Today's Extremes

State Highs State Lows

Community

WunderPhotos

Upload Photos

1,852,226 photos uploaded!

WunderBlogs® & News

Nearby

Air Quality

  Air Quality AQ Index Pollutant
Not available.

Snow Depth

Station Depth Elevation

Earthquake Activity

City Distance Mag. Time & Date
Minimum magnitude displayed is 2.5.

Coastal Water Temperatures

Place Temperature

Stations

Nearby Weather Stations

Station Location Temp. Windchill Dew Point Humidity Wind Precip. Elev Updated Type